sensor_id;sensor_type;location;lat;lon;timestamp;temperature;humidity
7598;DHT22;3840;59.32098800;18.06423600;2022-08-14T00:00:09;18.20;99.90
7598;DHT22;3840;59.32098800;18.06423600;2022-08-14T00:02:35;18.20;99.90
7598;DHT22;3840;59.32098800;18.06423600;2022-08-14T00:05:01;18.20;99.90
7598;DHT22;3840;59.32098800;18.06423600;2022-08-14T00:07:27;18.10;99.90
7598;DHT22;3840;59.32098800;18.06423600;2022-08-14T00:09:53;18.20;99.90
7598;DHT22;3840;59.32098800;18.06423600;2022-08-14T00:12:19;18.10;99.90
7598;DHT22;3840;59.32098800;18.06423600;2022-08-14T00:14:45;18.10;99.90
7598;DHT22;3840;59.32098800;18.06423600;2022-08-14T00:17:11;18.10;99.90
7598;DHT22;3840;59.32098800;18.06423600;2022-08-14T00:19:36;18.10;99.90
7598;DHT22;3840;59.32098800;18.06423600;2022-08-14T00:22:02;18.00;99.90
7598;DHT22;3840;59.32098800;18.06423600;2022-08-14T00:24:28;18.10;99.90
7598;DHT22;3840;59.32098800;18.06423600;2022-08-14T00:26:53;18.10;99.90
7598;DHT22;3840;59.32098800;18.06423600;2022-08-14T00:29:19;18.10;99.90
7598;DHT22;3840;59.32098800;18.06423600;2022-08-14T00:31:45;18.10;99.90
7598;DHT22;3840;59.32098800;18.06423600;2022-08-14T00:34:11;18.10;99.90
7598;DHT22;3840;59.32098800;18.06423600;2022-08-14T00:36:36;18.10;99.90
7598;DHT22;3840;59.32098800;18.06423600;2022-08-14T00:39:03;18.10;99.90
7598;DHT22;3840;59.32098800;18.06423600;2022-08-14T00:41:30;18.10;99.90
7598;DHT22;3840;59.32098800;18.06423600;2022-08-14T00:43:56;18.00;99.90
7598;DHT22;3840;59.32098800;18.06423600;2022-08-14T00:46:22;18.00;99.90
7598;DHT22;3840;59.32098800;18.06423600;2022-08-14T00:48:47;18.00;99.90
7598;DHT22;3840;59.32098800;18.06423600;2022-08-14T00:51:13;18.00;99.90
7598;DHT22;3840;59.32098800;18.06423600;2022-08-14T00:53:40;17.90;99.90
7598;DHT22;3840;59.32098800;18.06423600;2022-08-14T00:56:07;17.90;99.90
7598;DHT22;3840;59.32098800;18.06423600;2022-08-14T00:58:34;17.90;99.90
7598;DHT22;3840;59.32098800;18.06423600;2022-08-14T01:01:09;17.90;99.90
7598;DHT22;3840;59.32098800;18.06423600;2022-08-14T01:03:37;17.80;99.90
7598;DHT22;3840;59.32098800;18.06423600;2022-08-14T01:06:08;17.90;99.90
7598;DHT22;3840;59.32098800;18.06423600;2022-08-14T01:08:35;17.80;99.90
7598;DHT22;3840;59.32098800;18.06423600;2022-08-14T01:11:02;17.80;99.90
7598;DHT22;3840;59.32098800;18.06423600;2022-08-14T01:13:34;17.80;99.90
7598;DHT22;3840;59.32098800;18.06423600;2022-08-14T01:16:05;17.80;99.90
7598;DHT22;3840;59.32098800;18.06423600;2022-08-14T01:18:32;17.70;99.90
7598;DHT22;3840;59.32098800;18.06423600;2022-08-14T01:21:24;17.70;99.90
7598;DHT22;3840;59.32098800;18.06423600;2022-08-14T01:23:56;17.70;99.90
7598;DHT22;3840;59.32098800;18.06423600;2022-08-14T01:26:23;17.80;99.90
7598;DHT22;3840;59.32098800;18.06423600;2022-08-14T01:28:54;17.70;99.90
7598;DHT22;3840;59.32098800;18.06423600;2022-08-14T01:31:22;17.70;99.90
7598;DHT22;3840;59.32098800;18.06423600;2022-08-14T01:33:50;17.70;99.90
7598;DHT22;3840;59.32098800;18.06423600;2022-08-14T01:36:18;17.60;99.90
7598;DHT22;3840;59.32098800;18.06423600;2022-08-14T01:38:48;17.60;99.90
7598;DHT22;3840;59.32098800;18.06423600;2022-08-14T01:41:18;17.60;99.90
7598;DHT22;3840;59.32098800;18.06423600;2022-08-14T01:43:49;17.50;99.90
7598;DHT22;3840;59.32098800;18.06423600;2022-08-14T01:46:20;17.50;99.90
7598;DHT22;3840;59.32098800;18.06423600;2022-08-14T01:48:47;17.50;99.90
7598;DHT22;3840;59.32098800;18.06423600;2022-08-14T01:51:14;17.40;99.90
7598;DHT22;3840;59.32098800;18.06423600;2022-08-14T01:53:45;17.40;99.90
7598;DHT22;3840;59.32098800;18.06423600;2022-08-14T01:56:16;17.30;99.90
7598;DHT22;3840;59.32098800;18.06423600;2022-08-14T01:58:48;17.30;99.90
7598;DHT22;3840;59.32098800;18.06423600;2022-08-14T02:01:23;17.20;99.90
7598;DHT22;3840;59.32098800;18.06423600;2022-08-14T02:03:49;17.10;99.90
7598;DHT22;3840;59.32098800;18.06423600;2022-08-14T02:06:14;17.10;99.90
7598;DHT22;3840;59.32098800;18.06423600;2022-08-14T02:08:41;17.10;99.90
7598;DHT22;3840;59.32098800;18.06423600;2022-08-14T02:11:08;17.10;99.90
7598;DHT22;3840;59.32098800;18.06423600;2022-08-14T02:13:55;17.10;99.90
7598;DHT22;3840;59.32098800;18.06423600;2022-08-14T02:16:25;17.20;99.90
7598;DHT22;3840;59.32098800;18.06423600;2022-08-14T02:19:00;17.20;99.90
7598;DHT22;3840;59.32098800;18.06423600;2022-08-14T02:21:28;17.10;99.90
7598;DHT22;3840;59.32098800;18.06423600;2022-08-14T02:23:56;17.10;99.90
7598;DHT22;3840;59.32098800;18.06423600;2022-08-14T02:26:27;17.00;99.90
7598;DHT22;3840;59.32098800;18.06423600;2022-08-14T02:28:57;17.00;99.90
7598;DHT22;3840;59.32098800;18.06423600;2022-08-14T02:31:27;16.90;99.90
7598;DHT22;3840;59.32098800;18.06423600;2022-08-14T02:33:54;16.90;99.90
7598;DHT22;3840;59.32098800;18.06423600;2022-08-14T02:36:20;16.80;99.90
7598;DHT22;3840;59.32098800;18.06423600;2022-08-14T02:38:47;16.80;99.90
7598;DHT22;3840;59.32098800;18.06423600;2022-08-14T02:41:14;16.70;99.90
7598;DHT22;3840;59.32098800;18.06423600;2022-08-14T02:43:40;16.70;99.90
7598;DHT22;3840;59.32098800;18.06423600;2022-08-14T02:46:07;16.70;99.90
7598;DHT22;3840;59.32098800;18.06423600;2022-08-14T02:48:39;16.70;99.90
7598;DHT22;3840;59.32098800;18.06423600;2022-08-14T02:51:11;16.60;99.90
7598;DHT22;3840;59.32098800;18.06423600;2022-08-14T02:53:40;16.60;99.90
7598;DHT22;3840;59.32098800;18.06423600;2022-08-14T02:56:07;16.60;99.90
7598;DHT22;3840;59.32098800;18.06423600;2022-08-14T02:58:37;16.60;99.90
7598;DHT22;3840;59.32098800;18.06423600;2022-08-14T03:01:08;16.60;99.90
7598;DHT22;3840;59.32098800;18.06423600;2022-08-14T03:03:35;16.60;99.90
7598;DHT22;3840;59.32098800;18.06423600;2022-08-14T03:06:03;16.50;99.90
7598;DHT22;3840;59.32098800;18.06423600;2022-08-14T03:08:30;16.50;99.90
7598;DHT22;3840;59.32098800;18.06423600;2022-08-14T03:11:04;16.50;99.90
7598;DHT22;3840;59.32098800;18.06423600;2022-08-14T03:13:51;16.50;99.90
7598;DHT22;3840;59.32098800;18.06423600;2022-08-14T03:16:20;16.50;99.90
7598;DHT22;3840;59.32098800;18.06423600;2022-08-14T03:18:47;16.60;99.90
7598;DHT22;3840;59.32098800;18.06423600;2022-08-14T03:21:15;16.50;99.90
7598;DHT22;3840;59.32098800;18.06423600;2022-08-14T03:23:44;16.60;99.90
7598;DHT22;3840;59.32098800;18.06423600;2022-08-14T03:26:13;16.70;99.90
7598;DHT22;3840;59.32098800;18.06423600;2022-08-14T03:28:45;17.20;99.90
7598;DHT22;3840;59.32098800;18.06423600;2022-08-14T03:31:11;17.80;99.90
7598;DHT22;3840;59.32098800;18.06423600;2022-08-14T03:33:38;18.40;99.90
7598;DHT22;3840;59.32098800;18.06423600;2022-08-14T03:36:07;19.00;99.90
7598;DHT22;3840;59.32098800;18.06423600;2022-08-14T03:38:37;19.50;99.90
7598;DHT22;3840;59.32098800;18.06423600;2022-08-14T03:41:10;19.70;99.90
7598;DHT22;3840;59.32098800;18.06423600;2022-08-14T03:43:42;20.10;99.90
7598;DHT22;3840;59.32098800;18.06423600;2022-08-14T03:46:09;20.60;99.90
7598;DHT22;3840;59.32098800;18.06423600;2022-08-14T03:48:36;21.00;99.90
7598;DHT22;3840;59.32098800;18.06423600;2022-08-14T03:51:03;21.20;99.90
7598;DHT22;3840;59.32098800;18.06423600;2022-08-14T03:53:29;21.30;99.90
7598;DHT22;3840;59.32098800;18.06423600;2022-08-14T03:55:56;21.40;99.90
7598;DHT22;3840;59.32098800;18.06423600;2022-08-14T03:58:23;21.60;99.90
7598;DHT22;3840;59.32098800;18.06423600;2022-08-14T04:00:49;22.00;99.90
7598;DHT22;3840;59.32098800;18.06423600;2022-08-14T04:03:15;22.60;99.90
7598;DHT22;3840;59.32098800;18.06423600;2022-08-14T04:05:41;22.80;99.90
7598;DHT22;3840;59.32098800;18.06423600;2022-08-14T04:08:10;22.80;99.90
7598;DHT22;3840;59.32098800;18.06423600;2022-08-14T04:10:36;23.20;99.90
7598;DHT22;3840;59.32098800;18.06423600;2022-08-14T04:13:04;23.30;99.90
7598;DHT22;3840;59.32098800;18.06423600;2022-08-14T04:15:33;23.30;99.90
7598;DHT22;3840;59.32098800;18.06423600;2022-08-14T04:18:06;23.60;99.90
7598;DHT22;3840;59.32098800;18.06423600;2022-08-14T04:20:33;23.80;99.90
7598;DHT22;3840;59.32098800;18.06423600;2022-08-14T04:22:59;24.00;99.90
7598;DHT22;3840;59.32098800;18.06423600;2022-08-14T04:25:26;23.90;99.90
7598;DHT22;3840;59.32098800;18.06423600;2022-08-14T04:27:51;24.10;99.90
7598;DHT22;3840;59.32098800;18.06423600;2022-08-14T04:30:19;24.30;99.90
7598;DHT22;3840;59.32098800;18.06423600;2022-08-14T04:32:44;24.30;99.90
7598;DHT22;3840;59.32098800;18.06423600;2022-08-14T04:35:10;24.50;99.90
7598;DHT22;3840;59.32098800;18.06423600;2022-08-14T04:37:36;24.40;99.90
7598;DHT22;3840;59.32098800;18.06423600;2022-08-14T04:40:20;25.00;99.90
7598;DHT22;3840;59.32098800;18.06423600;2022-08-14T04:43:04;25.40;99.90
7598;DHT22;3840;59.32098800;18.06423600;2022-08-14T04:45:49;26.80;99.90
7598;DHT22;3840;59.32098800;18.06423600;2022-08-14T04:48:16;24.50;99.90
7598;DHT22;3840;59.32098800;18.06423600;2022-08-14T04:50:50;22.90;99.90
7598;DHT22;3840;59.32098800;18.06423600;2022-08-14T04:53:22;21.80;99.90
7598;DHT22;3840;59.32098800;18.06423600;2022-08-14T04:55:49;21.20;99.90
7598;DHT22;3840;59.32098800;18.06423600;2022-08-14T04:58:16;20.80;99.90
7598;DHT22;3840;59.32098800;18.06423600;2022-08-14T05:00:46;20.60;99.90
7598;DHT22;3840;59.32098800;18.06423600;2022-08-14T05:03:18;20.50;99.90
7598;DHT22;3840;59.32098800;18.06423600;2022-08-14T05:05:51;19.70;99.90
7598;DHT22;3840;59.32098800;18.06423600;2022-08-14T05:08:17;20.40;99.90
7598;DHT22;3840;59.32098800;18.06423600;2022-08-14T05:10:51;20.30;99.90
7598;DHT22;3840;59.32098800;18.06423600;2022-08-14T05:13:19;20.30;99.90
7598;DHT22;3840;59.32098800;18.06423600;2022-08-14T05:15:45;20.30;99.90
7598;DHT22;3840;59.32098800;18.06423600;2022-08-14T05:18:23;20.30;99.90
7598;DHT22;3840;59.32098800;18.06423600;2022-08-14T05:20:52;20.30;99.90
7598;DHT22;3840;59.32098800;18.06423600;2022-08-14T05:23:20;20.30;99.90
7598;DHT22;3840;59.32098800;18.06423600;2022-08-14T05:25:48;20.30;99.90
7598;DHT22;3840;59.32098800;18.06423600;2022-08-14T05:28:17;20.40;99.90
7598;DHT22;3840;59.32098800;18.06423600;2022-08-14T05:30:47;20.60;99.90
7598;DHT22;3840;59.32098800;18.06423600;2022-08-14T05:33:14;20.60;99.90
7598;DHT22;3840;59.32098800;18.06423600;2022-08-14T05:35:41;20.60;99.90
7598;DHT22;3840;59.32098800;18.06423600;2022-08-14T05:38:09;20.60;99.90
7598;DHT22;3840;59.32098800;18.06423600;2022-08-14T05:40:35;20.70;99.90
7598;DHT22;3840;59.32098800;18.06423600;2022-08-14T05:43:02;20.60;99.90
7598;DHT22;3840;59.32098800;18.06423600;2022-08-14T05:45:28;20.70;99.90
7598;DHT22;3840;59.32098800;18.06423600;2022-08-14T05:47:53;20.70;99.90
7598;DHT22;3840;59.32098800;18.06423600;2022-08-14T05:50:19;20.80;99.90
7598;DHT22;3840;59.32098800;18.06423600;2022-08-14T05:52:46;20.80;99.90
7598;DHT22;3840;59.32098800;18.06423600;2022-08-14T05:55:13;20.90;99.90
7598;DHT22;3840;59.32098800;18.06423600;2022-08-14T05:57:55;21.00;99.90
7598;DHT22;3840;59.32098800;18.06423600;2022-08-14T06:00:24;21.10;99.90
7598;DHT22;3840;59.32098800;18.06423600;2022-08-14T06:02:50;21.30;99.90
7598;DHT22;3840;59.32098800;18.06423600;2022-08-14T06:05:16;21.30;99.90
7598;DHT22;3840;59.32098800;18.06423600;2022-08-14T06:07:42;21.40;99.90
7598;DHT22;3840;59.32098800;18.06423600;2022-08-14T06:10:09;21.30;99.90
7598;DHT22;3840;59.32098800;18.06423600;2022-08-14T06:12:35;21.30;99.90
7598;DHT22;3840;59.32098800;18.06423600;2022-08-14T06:15:02;21.40;99.90
7598;DHT22;3840;59.32098800;18.06423600;2022-08-14T06:17:28;21.50;99.90
7598;DHT22;3840;59.32098800;18.06423600;2022-08-14T06:19:54;21.50;99.90
7598;DHT22;3840;59.32098800;18.06423600;2022-08-14T06:22:19;21.60;99.90
7598;DHT22;3840;59.32098800;18.06423600;2022-08-14T06:24:45;21.60;99.90
7598;DHT22;3840;59.32098800;18.06423600;2022-08-14T06:27:11;21.70;99.90
7598;DHT22;3840;59.32098800;18.06423600;2022-08-14T06:29:38;21.70;99.90
7598;DHT22;3840;59.32098800;18.06423600;2022-08-14T06:32:04;21.90;99.90
7598;DHT22;3840;59.32098800;18.06423600;2022-08-14T06:34:30;22.00;99.90
7598;DHT22;3840;59.32098800;18.06423600;2022-08-14T06:36:56;22.10;99.90
7598;DHT22;3840;59.32098800;18.06423600;2022-08-14T06:39:22;22.20;99.90
7598;DHT22;3840;59.32098800;18.06423600;2022-08-14T06:41:48;22.20;99.90
7598;DHT22;3840;59.32098800;18.06423600;2022-08-14T06:44:14;22.30;99.90
7598;DHT22;3840;59.32098800;18.06423600;2022-08-14T06:46:40;22.30;99.90
7598;DHT22;3840;59.32098800;18.06423600;2022-08-14T06:49:06;22.40;99.90
7598;DHT22;3840;59.32098800;18.06423600;2022-08-14T06:51:32;22.40;99.90
7598;DHT22;3840;59.32098800;18.06423600;2022-08-14T06:53:57;22.40;99.90
7598;DHT22;3840;59.32098800;18.06423600;2022-08-14T06:56:23;22.40;99.90
7598;DHT22;3840;59.32098800;18.06423600;2022-08-14T06:58:49;22.50;99.90
7598;DHT22;3840;59.32098800;18.06423600;2022-08-14T07:01:15;22.60;99.90
7598;DHT22;3840;59.32098800;18.06423600;2022-08-14T07:03:59;22.70;99.90
7598;DHT22;3840;59.32098800;18.06423600;2022-08-14T07:06:43;22.80;99.90
7598;DHT22;3840;59.32098800;18.06423600;2022-08-14T07:09:10;22.90;99.90
7598;DHT22;3840;59.32098800;18.06423600;2022-08-14T07:11:36;23.00;99.90
7598;DHT22;3840;59.32098800;18.06423600;2022-08-14T07:14:02;22.90;99.90
7598;DHT22;3840;59.32098800;18.06423600;2022-08-14T07:16:28;23.00;99.90
7598;DHT22;3840;59.32098800;18.06423600;2022-08-14T07:18:53;23.10;99.90
7598;DHT22;3840;59.32098800;18.06423600;2022-08-14T07:21:19;23.10;99.90
7598;DHT22;3840;59.32098800;18.06423600;2022-08-14T07:23:45;23.10;99.90
7598;DHT22;3840;59.32098800;18.06423600;2022-08-14T07:26:10;23.20;99.90
7598;DHT22;3840;59.32098800;18.06423600;2022-08-14T07:28:39;23.20;99.90
7598;DHT22;3840;59.32098800;18.06423600;2022-08-14T07:31:07;23.20;99.90
7598;DHT22;3840;59.32098800;18.06423600;2022-08-14T07:33:45;23.30;99.90
7598;DHT22;3840;59.32098800;18.06423600;2022-08-14T07:36:13;23.30;99.90
7598;DHT22;3840;59.32098800;18.06423600;2022-08-14T07:38:39;23.40;99.90
7598;DHT22;3840;59.32098800;18.06423600;2022-08-14T07:41:06;23.50;99.90
7598;DHT22;3840;59.32098800;18.06423600;2022-08-14T07:43:33;23.60;99.90
7598;DHT22;3840;59.32098800;18.06423600;2022-08-14T07:45:59;23.50;99.90
7598;DHT22;3840;59.32098800;18.06423600;2022-08-14T07:48:25;23.40;99.90
7598;DHT22;3840;59.32098800;18.06423600;2022-08-14T07:50:52;23.80;99.90
7598;DHT22;3840;59.32098800;18.06423600;2022-08-14T07:53:17;23.90;99.90
7598;DHT22;3840;59.32098800;18.06423600;2022-08-14T07:55:44;23.90;99.90
7598;DHT22;3840;59.32098800;18.06423600;2022-08-14T07:58:11;24.00;99.90
7598;DHT22;3840;59.32098800;18.06423600;2022-08-14T08:00:38;24.00;99.90
7598;DHT22;3840;59.32098800;18.06423600;2022-08-14T08:03:06;24.00;99.90
7598;DHT22;3840;59.32098800;18.06423600;2022-08-14T08:05:39;24.10;99.90
7598;DHT22;3840;59.32098800;18.06423600;2022-08-14T08:08:07;24.20;99.90
7598;DHT22;3840;59.32098800;18.06423600;2022-08-14T08:10:33;24.20;99.90
7598;DHT22;3840;59.32098800;18.06423600;2022-08-14T08:13:11;24.20;99.90
7598;DHT22;3840;59.32098800;18.06423600;2022-08-14T08:15:42;24.20;99.90
7598;DHT22;3840;59.32098800;18.06423600;2022-08-14T08:18:10;24.20;99.90
7598;DHT22;3840;59.32098800;18.06423600;2022-08-14T08:20:39;24.30;99.90
7598;DHT22;3840;59.32098800;18.06423600;2022-08-14T08:23:06;24.40;99.90
7598;DHT22;3840;59.32098800;18.06423600;2022-08-14T08:25:38;24.40;99.90
7598;DHT22;3840;59.32098800;18.06423600;2022-08-14T08:28:06;24.40;99.90
7598;DHT22;3840;59.32098800;18.06423600;2022-08-14T08:30:34;24.50;99.90
7598;DHT22;3840;59.32098800;18.06423600;2022-08-14T08:33:03;24.60;99.90
7598;DHT22;3840;59.32098800;18.06423600;2022-08-14T08:35:31;24.60;99.90
7598;DHT22;3840;59.32098800;18.06423600;2022-08-14T08:38:13;24.60;99.90
7598;DHT22;3840;59.32098800;18.06423600;2022-08-14T08:40:49;24.70;99.90
7598;DHT22;3840;59.32098800;18.06423600;2022-08-14T08:43:30;24.70;99.90
7598;DHT22;3840;59.32098800;18.06423600;2022-08-14T08:46:00;24.80;99.90
7598;DHT22;3840;59.32098800;18.06423600;2022-08-14T08:48:27;24.80;99.90
7598;DHT22;3840;59.32098800;18.06423600;2022-08-14T08:50:56;24.80;99.90
7598;DHT22;3840;59.32098800;18.06423600;2022-08-14T08:53:22;24.90;99.90
7598;DHT22;3840;59.32098800;18.06423600;2022-08-14T08:55:48;24.90;99.90
7598;DHT22;3840;59.32098800;18.06423600;2022-08-14T08:58:18;25.00;99.90
7598;DHT22;3840;59.32098800;18.06423600;2022-08-14T09:00:48;25.10;99.90
7598;DHT22;3840;59.32098800;18.06423600;2022-08-14T09:03:17;26.70;99.90
7598;DHT22;3840;59.32098800;18.06423600;2022-08-14T09:05:52;25.10;99.90
7598;DHT22;3840;59.32098800;18.06423600;2022-08-14T09:08:21;25.10;99.90
7598;DHT22;3840;59.32098800;18.06423600;2022-08-14T09:10:49;25.20;99.90
7598;DHT22;3840;59.32098800;18.06423600;2022-08-14T09:13:15;25.20;99.90
7598;DHT22;3840;59.32098800;18.06423600;2022-08-14T09:15:43;25.30;99.90
7598;DHT22;3840;59.32098800;18.06423600;2022-08-14T09:18:10;25.30;99.90
7598;DHT22;3840;59.32098800;18.06423600;2022-08-14T09:20:44;25.30;99.90
7598;DHT22;3840;59.32098800;18.06423600;2022-08-14T09:23:11;25.40;99.90
7598;DHT22;3840;59.32098800;18.06423600;2022-08-14T09:25:40;25.40;99.90
7598;DHT22;3840;59.32098800;18.06423600;2022-08-14T09:28:07;25.40;99.90
7598;DHT22;3840;59.32098800;18.06423600;2022-08-14T09:30:35;25.40;99.90
7598;DHT22;3840;59.32098800;18.06423600;2022-08-14T09:44:03;25.50;99.90
7598;DHT22;3840;59.32098800;18.06423600;2022-08-14T09:46:31;25.60;99.90
7598;DHT22;3840;59.32098800;18.06423600;2022-08-14T09:49:02;25.60;99.90
7598;DHT22;3840;59.32098800;18.06423600;2022-08-14T09:51:29;25.60;99.90
7598;DHT22;3840;59.32098800;18.06423600;2022-08-14T09:54:00;25.70;99.90
7598;DHT22;3840;59.32098800;18.06423600;2022-08-14T09:56:26;25.60;99.90
7598;DHT22;3840;59.32098800;18.06423600;2022-08-14T09:58:52;25.70;99.90
7598;DHT22;3840;59.32098800;18.06423600;2022-08-14T10:01:19;25.60;99.90
7598;DHT22;3840;59.32098800;18.06423600;2022-08-14T10:03:53;25.60;99.90
7598;DHT22;3840;59.32098800;18.06423600;2022-08-14T10:06:22;25.70;99.90
7598;DHT22;3840;59.32098800;18.06423600;2022-08-14T10:09:11;25.70;99.90
7598;DHT22;3840;59.32098800;18.06423600;2022-08-14T10:11:38;25.70;99.90
7598;DHT22;3840;59.32098800;18.06423600;2022-08-14T10:14:15;25.80;99.90
7598;DHT22;3840;59.32098800;18.06423600;2022-08-14T10:16:49;25.70;99.90
7598;DHT22;3840;59.32098800;18.06423600;2022-08-14T10:19:24;25.70;99.90
7598;DHT22;3840;59.32098800;18.06423600;2022-08-14T10:22:01;25.70;99.90
7598;DHT22;3840;59.32098800;18.06423600;2022-08-14T10:24:40;25.80;99.90
7598;DHT22;3840;59.32098800;18.06423600;2022-08-14T10:27:17;25.80;99.90
7598;DHT22;3840;59.32098800;18.06423600;2022-08-14T10:29:49;25.80;99.90
7598;DHT22;3840;59.32098800;18.06423600;2022-08-14T10:32:15;25.80;99.90
7598;DHT22;3840;59.32098800;18.06423600;2022-08-14T10:34:41;25.80;99.90
7598;DHT22;3840;59.32098800;18.06423600;2022-08-14T10:37:11;25.90;99.90
7598;DHT22;3840;59.32098800;18.06423600;2022-08-14T10:39:39;25.90;99.90
7598;DHT22;3840;59.32098800;18.06423600;2022-08-14T10:42:10;25.90;99.90
7598;DHT22;3840;59.32098800;18.06423600;2022-08-14T10:44:39;25.90;99.90
7598;DHT22;3840;59.32098800;18.06423600;2022-08-14T10:47:07;25.90;99.90
7598;DHT22;3840;59.32098800;18.06423600;2022-08-14T10:49:42;25.90;99.90
7598;DHT22;3840;59.32098800;18.06423600;2022-08-14T10:52:28;25.90;99.90
7598;DHT22;3840;59.32098800;18.06423600;2022-08-14T10:55:11;26.00;99.90
7598;DHT22;3840;59.32098800;18.06423600;2022-08-14T11:00:15;26.00;99.90
7598;DHT22;3840;59.32098800;18.06423600;2022-08-14T11:02:42;26.10;99.90
7598;DHT22;3840;59.32098800;18.06423600;2022-08-14T11:05:09;26.10;99.90
7598;DHT22;3840;59.32098800;18.06423600;2022-08-14T11:07:41;26.10;99.90
7598;DHT22;3840;59.32098800;18.06423600;2022-08-14T11:10:10;26.10;99.90
7598;DHT22;3840;59.32098800;18.06423600;2022-08-14T11:12:45;26.10;99.90
7598;DHT22;3840;59.32098800;18.06423600;2022-08-14T11:15:17;26.10;99.90
7598;DHT22;3840;59.32098800;18.06423600;2022-08-14T11:17:44;26.20;99.90
7598;DHT22;3840;59.32098800;18.06423600;2022-08-14T11:20:12;26.20;99.90
7598;DHT22;3840;59.32098800;18.06423600;2022-08-14T11:22:39;26.30;99.90
7598;DHT22;3840;59.32098800;18.06423600;2022-08-14T11:25:08;26.30;99.90
7598;DHT22;3840;59.32098800;18.06423600;2022-08-14T11:27:35;26.30;99.90
7598;DHT22;3840;59.32098800;18.06423600;2022-08-14T11:30:06;26.20;99.90
7598;DHT22;3840;59.32098800;18.06423600;2022-08-14T11:32:32;26.30;99.90
7598;DHT22;3840;59.32098800;18.06423600;2022-08-14T11:34:59;26.30;99.90
7598;DHT22;3840;59.32098800;18.06423600;2022-08-14T11:37:27;26.30;99.90
7598;DHT22;3840;59.32098800;18.06423600;2022-08-14T11:39:59;26.30;99.10
7598;DHT22;3840;59.32098800;18.06423600;2022-08-14T11:42:26;26.30;98.60
7598;DHT22;3840;59.32098800;18.06423600;2022-08-14T11:44:55;26.40;98.30
7598;DHT22;3840;59.32098800;18.06423600;2022-08-14T11:47:21;26.40;98.00
7598;DHT22;3840;59.32098800;18.06423600;2022-08-14T11:49:47;26.40;98.90
7598;DHT22;3840;59.32098800;18.06423600;2022-08-14T11:52:17;26.40;99.00
7598;DHT22;3840;59.32098800;18.06423600;2022-08-14T11:54:44;26.30;99.90
7598;DHT22;3840;59.32098800;18.06423600;2022-08-14T11:57:20;26.40;99.90
